createdAt,value
2019-05-01T00:01:45.339Z,84.47
2019-05-01T00:04:18.668Z,85.06
2019-05-01T00:06:46.472Z,86.05
2019-05-01T00:09:12.355Z,86.05
2019-05-01T00:11:38.142Z,85.70
2019-05-01T00:14:05.921Z,85.47
2019-05-01T00:16:31.719Z,85.90
2019-05-01T00:18:57.498Z,85.90
2019-05-01T00:21:23.291Z,85.62
2019-05-01T00:23:49.068Z,85.96
2019-05-01T00:26:14.867Z,85.96
2019-05-01T00:28:40.641Z,86.04
2019-05-01T00:31:06.452Z,86.52
2019-05-01T00:33:32.242Z,87.03
2019-05-01T00:35:58.059Z,86.82
2019-05-01T00:38:24.211Z,86.88
2019-05-01T00:40:50.058Z,87.23
2019-05-01T00:43:15.839Z,87.23
2019-05-01T00:45:41.632Z,87.06
2019-05-01T00:48:07.470Z,87.25
2019-05-01T00:50:33.409Z,87.32
2019-05-01T00:52:59.182Z,87.12
2019-05-01T00:55:38.788Z,87.44
2019-05-01T00:58:06.696Z,87.62
2019-05-01T01:00:43.172Z,88.21
2019-05-01T01:03:07.617Z,88.13
2019-05-01T01:05:33.450Z,88.13
2019-05-01T01:07:59.319Z,88.33
2019-05-01T01:10:25.251Z,87.92
2019-05-01T01:12:51.034Z,88.28
2019-05-01T01:15:16.832Z,88.33
2019-05-01T01:17:42.619Z,87.97
2019-05-01T01:20:08.413Z,87.76
2019-05-01T01:22:34.198Z,87.87
2019-05-01T01:24:59.993Z,87.85
2019-05-01T01:27:25.795Z,87.90
2019-05-01T01:29:51.819Z,87.90
2019-05-01T01:32:17.772Z,87.80
2019-05-01T01:34:43.646Z,88.19
2019-05-01T01:37:09.549Z,87.85
2019-05-01T01:39:35.437Z,87.45
2019-05-01T01:42:01.538Z,87.89
2019-05-01T01:44:32.243Z,87.48
2019-05-01T01:47:00.059Z,87.74
2019-05-01T01:49:26.023Z,87.58
2019-05-01T01:51:51.810Z,87.28
2019-05-01T01:54:17.680Z,87.17
2019-05-01T01:56:43.673Z,87.33
2019-05-01T01:59:10.179Z,87.01
2019-05-01T02:01:47.089Z,86.42
2019-05-01T02:04:17.942Z,86.93
2019-05-01T02:06:43.750Z,86.93
2019-05-01T02:09:09.737Z,86.62
2019-05-01T02:11:35.828Z,86.75
2019-05-01T02:14:01.627Z,86.43
2019-05-01T02:16:28.086Z,86.43
2019-05-01T02:18:53.899Z,85.96
2019-05-01T02:21:19.682Z,85.96
2019-05-01T02:23:45.478Z,85.95
2019-05-01T02:26:13.808Z,85.41
2019-05-01T02:28:44.562Z,85.10
2019-05-01T02:31:27.434Z,85.62
2019-05-01T02:33:41.732Z,85.62
2019-05-01T02:36:08.731Z,85.55
2019-05-01T02:38:36.356Z,85.39
2019-05-01T02:41:02.350Z,85.39
2019-05-01T02:43:31.949Z,84.84
2019-05-01T02:46:00.254Z,84.95
2019-05-01T02:48:28.474Z,85.29
2019-05-01T02:50:57.466Z,85.29
2019-05-01T02:53:23.589Z,85.48
2019-05-01T02:56:08.293Z,85.48
2019-05-01T02:58:34.411Z,84.80
2019-05-01T03:01:00.310Z,84.80
2019-05-01T03:03:27.659Z,84.43
2019-05-01T03:05:53.501Z,84.51
2019-05-01T03:08:19.654Z,84.42
2019-05-01T03:10:45.433Z,84.60
2019-05-01T03:13:11.284Z,84.59
2019-05-01T03:15:37.370Z,84.46
2019-05-01T03:18:07.929Z,84.50
2019-05-01T03:20:42.284Z,84.50
2019-05-01T03:23:12.900Z,85.21
2019-05-01T03:25:38.903Z,85.08
2019-05-01T03:28:08.995Z,85.08
2019-05-01T03:30:34.891Z,84.25
2019-05-01T03:33:00.699Z,84.25
2019-05-01T03:35:26.645Z,83.98
2019-05-01T03:37:52.495Z,84.08
2019-05-01T03:40:18.312Z,84.13
2019-05-01T03:42:44.100Z,84.18
2019-05-01T03:45:09.902Z,84.57
2019-05-01T03:47:35.784Z,84.54
2019-05-01T03:50:01.590Z,84.71
2019-05-01T03:52:27.391Z,84.36
2019-05-01T03:54:53.199Z,84.54
2019-05-01T03:57:19.093Z,84.45
2019-05-01T03:59:45.400Z,84.71
2019-05-01T04:02:32.059Z,84.94
2019-05-01T04:04:43.692Z,85.22
2019-05-01T04:07:09.577Z,85.22
2019-05-01T04:09:35.871Z,85.21
2019-05-01T04:12:01.762Z,85.31
2019-05-01T04:14:28.359Z,85.32
2019-05-01T04:16:56.052Z,85.47
2019-05-01T04:19:22.376Z,85.36
2019-05-01T04:21:50.152Z,85.69
2019-05-01T04:24:16.665Z,85.35
2019-05-01T04:26:42.486Z,85.31
2019-05-01T04:29:15.687Z,85.31
2019-05-01T04:31:52.649Z,85.79
2019-05-01T04:34:43.993Z,86.04
2019-05-01T04:37:12.094Z,86.28
2019-05-01T04:39:37.937Z,86.28
2019-05-01T04:42:03.825Z,86.00
2019-05-01T04:44:29.712Z,86.05
2019-05-01T04:46:56.518Z,86.17
2019-05-01T04:49:22.511Z,86.12
2019-05-01T04:51:48.321Z,86.29
2019-05-01T04:54:14.310Z,86.92
2019-05-01T04:56:40.415Z,87.06
2019-05-01T04:59:06.305Z,86.69
2019-05-01T05:01:34.122Z,86.78
2019-05-01T05:04:00.230Z,85.81
2019-05-01T05:06:26.044Z,85.81
2019-05-01T05:08:51.827Z,85.37
2019-05-01T05:11:25.351Z,85.45
2019-05-01T05:14:07.952Z,85.89
2019-05-01T05:16:50.631Z,86.47
2019-05-01T05:19:16.424Z,86.37
2019-05-01T05:21:42.237Z,86.18
2019-05-01T05:24:08.128Z,85.92
2019-05-01T05:26:33.940Z,85.69
2019-05-01T05:28:59.717Z,86.02
2019-05-01T05:31:26.541Z,86.98
2019-05-01T05:33:52.628Z,87.34
2019-05-01T05:36:18.639Z,87.15
2019-05-01T05:38:52.240Z,87.15
2019-05-01T05:41:18.046Z,87.51
2019-05-01T05:43:43.943Z,87.89
2019-05-01T05:46:09.833Z,88.20
2019-05-01T05:48:35.848Z,87.79
2019-05-01T05:51:06.862Z,87.74
2019-05-01T05:53:36.171Z,87.36
2019-05-01T05:56:05.766Z,87.37
2019-05-01T05:58:36.494Z,87.01
2019-05-01T06:01:04.489Z,86.71
2019-05-01T06:03:41.927Z,86.88
2019-05-01T06:06:11.521Z,86.88
2019-05-01T06:08:38.828Z,87.53
2019-05-01T06:11:06.930Z,87.91
2019-05-01T06:13:52.610Z,88.48
2019-05-01T06:16:21.234Z,89.17
2019-05-01T06:18:49.238Z,89.12
2019-05-01T06:21:19.818Z,88.91
2019-05-01T06:23:47.536Z,88.34
2019-05-01T06:26:32.110Z,88.63
2019-05-01T06:29:00.644Z,88.08
2019-05-01T06:31:25.404Z,88.57
2019-05-01T06:33:52.965Z,88.57
2019-05-01T06:36:19.100Z,89.06
2019-05-01T06:38:45.406Z,88.82
2019-05-01T06:41:12.004Z,89.03
2019-05-01T06:43:45.633Z,89.77
2019-05-01T06:46:13.425Z,89.77
2019-05-01T06:48:53.527Z,89.32
2019-05-01T06:51:36.409Z,89.32
2019-05-01T06:54:03.413Z,89.41
2019-05-01T06:56:29.306Z,89.57
2019-05-01T06:58:56.367Z,89.38
2019-05-01T07:01:24.060Z,89.03
2019-05-01T07:04:03.235Z,89.17
2019-05-01T07:06:17.726Z,89.17
2019-05-01T07:08:43.615Z,89.16
2019-05-01T07:11:10.818Z,89.13
2019-05-01T07:13:41.451Z,88.90
2019-05-01T07:16:07.358Z,89.04
2019-05-01T07:18:33.245Z,88.81
2019-05-01T07:20:59.042Z,88.81
2019-05-01T07:23:24.931Z,89.45
2019-05-01T07:25:50.825Z,89.17
2019-05-01T07:28:16.605Z,89.36
2019-05-01T07:30:49.967Z,89.34
2019-05-01T07:33:16.656Z,88.95
2019-05-01T07:35:42.343Z,88.49
2019-05-01T07:38:08.225Z,88.74
2019-05-01T07:40:34.396Z,88.82
2019-05-01T07:43:02.146Z,89.10
2019-05-01T07:45:32.601Z,89.10
2019-05-01T07:48:01.013Z,89.15
2019-05-01T07:50:31.509Z,89.15
2019-05-01T07:52:54.115Z,89.87
2019-05-01T07:55:35.143Z,89.87
2019-05-01T07:58:01.042Z,89.47
2019-05-01T08:00:42.613Z,88.65
2019-05-01T08:03:08.496Z,88.87
2019-05-01T08:05:34.266Z,89.14
2019-05-01T08:08:02.926Z,88.95
2019-05-01T08:10:31.457Z,88.87
2019-05-01T08:13:00.349Z,88.92
2019-05-01T08:15:27.650Z,89.03
2019-05-01T08:17:53.125Z,88.42
2019-05-01T08:20:30.447Z,87.83
2019-05-01T08:22:56.262Z,87.16
2019-05-01T08:25:22.049Z,86.86
2019-05-01T08:27:51.211Z,87.01
2019-05-01T08:30:22.100Z,87.00
2019-05-01T08:33:09.819Z,86.91
2019-05-01T08:35:36.469Z,86.96
2019-05-01T08:38:03.177Z,86.77
2019-05-01T08:40:28.978Z,86.66
2019-05-01T08:42:54.775Z,86.94
2019-05-01T08:45:40.919Z,86.73
2019-05-01T08:48:08.221Z,86.75
2019-05-01T08:50:34.017Z,86.52
2019-05-01T08:52:59.826Z,85.41
2019-05-01T08:55:25.613Z,84.49
2019-05-01T08:57:51.407Z,85.06
2019-05-01T09:00:17.289Z,85.07
2019-05-01T09:02:43.448Z,85.36
2019-05-01T09:05:27.765Z,85.84
2019-05-01T09:07:37.323Z,86.23
2019-05-01T09:10:04.470Z,86.85
2019-05-01T09:12:30.286Z,87.34
2019-05-01T09:14:56.087Z,86.66
2019-05-01T09:17:21.886Z,86.98
2019-05-01T09:19:47.697Z,87.20
2019-05-01T09:22:13.476Z,87.66
2019-05-01T09:24:39.377Z,87.42
2019-05-01T09:27:29.586Z,87.70
2019-05-01T09:29:54.730Z,87.52
2019-05-01T09:32:20.623Z,87.21
2019-05-01T09:34:46.423Z,86.89
2019-05-01T09:37:12.211Z,86.90
2019-05-01T09:39:38.136Z,86.89
2019-05-01T09:42:06.537Z,87.16
2019-05-01T09:44:31.922Z,86.74
2019-05-01T09:46:57.724Z,86.58
2019-05-01T09:49:23.619Z,85.72
2019-05-01T09:52:00.176Z,85.44
2019-05-01T09:54:30.655Z,84.97
2019-05-01T09:56:56.450Z,83.80
2019-05-01T09:59:22.258Z,83.26
2019-05-01T10:01:48.047Z,83.29
2019-05-01T10:04:13.856Z,83.02
2019-05-01T10:06:39.641Z,82.84
2019-05-01T10:09:06.613Z,84.23
2019-05-01T10:11:36.031Z,84.49
2019-05-01T10:14:00.528Z,84.73
2019-05-01T10:16:26.411Z,84.67
2019-05-01T10:18:52.514Z,85.10
2019-05-01T10:21:22.364Z,84.77
2019-05-01T10:23:51.298Z,85.20
2019-05-01T10:26:19.124Z,85.56
2019-05-01T10:29:01.698Z,86.19
2019-05-01T10:31:35.222Z,85.97
2019-05-01T10:34:11.927Z,85.55
2019-05-01T10:36:39.633Z,85.22
2019-05-01T10:39:06.261Z,85.13
2019-05-01T10:41:32.101Z,84.99
2019-05-01T10:43:57.898Z,84.73
2019-05-01T10:46:23.711Z,84.90
2019-05-01T10:48:49.527Z,84.89
2019-05-01T10:51:15.311Z,84.82
2019-05-01T10:53:43.227Z,84.46
2019-05-01T10:56:08.835Z,84.16
2019-05-01T10:58:34.627Z,84.43
2019-05-01T11:01:02.395Z,84.30
2019-05-01T11:03:28.194Z,84.68
2019-05-01T11:05:55.952Z,84.96
2019-05-01T11:08:22.026Z,84.60
2019-05-01T11:10:47.844Z,84.85
2019-05-01T11:13:13.612Z,85.23
2019-05-01T11:15:39.418Z,85.53
2019-05-01T11:18:05.211Z,85.49
2019-05-01T11:20:31.005Z,85.08
2019-05-01T11:22:56.794Z,85.01
2019-05-01T11:25:23.082Z,84.34
2019-05-01T11:27:48.883Z,84.50
2019-05-01T11:30:14.675Z,83.30
2019-05-01T11:33:00.346Z,83.30
2019-05-01T11:35:44.485Z,83.78
2019-05-01T11:38:18.190Z,84.02
2019-05-01T11:40:46.083Z,83.99
2019-05-01T11:43:11.877Z,83.23
2019-05-01T11:45:37.715Z,83.14
2019-05-01T11:48:03.466Z,82.70
2019-05-01T11:50:29.249Z,83.51
2019-05-01T11:52:55.047Z,83.40
2019-05-01T11:55:20.837Z,84.13
2019-05-01T11:57:46.635Z,83.99
2019-05-01T12:00:14.958Z,83.35
2019-05-01T12:02:40.767Z,83.50
2019-05-01T12:05:06.653Z,83.52
2019-05-01T12:07:32.449Z,83.59
2019-05-01T12:09:58.322Z,83.59
2019-05-01T12:12:26.014Z,83.31
2019-05-01T12:14:51.818Z,83.25
2019-05-01T12:17:22.298Z,83.74
2019-05-01T12:19:48.117Z,83.74
2019-05-01T12:22:13.913Z,84.07
2019-05-01T12:24:39.708Z,84.40
2019-05-01T12:27:06.306Z,84.67
2019-05-01T12:29:32.384Z,84.33
2019-05-01T12:31:58.210Z,83.91
2019-05-01T12:34:23.990Z,83.55
2019-05-01T12:36:51.677Z,83.55
2019-05-01T12:39:18.399Z,83.92
2019-05-01T12:41:54.676Z,83.88
2019-05-01T12:44:20.482Z,83.97
2019-05-01T12:47:04.262Z,83.72
2019-05-01T12:49:30.378Z,83.64
2019-05-01T12:52:09.928Z,84.08
2019-05-01T12:54:27.979Z,84.05
2019-05-01T12:56:57.796Z,84.47
2019-05-01T12:59:23.599Z,85.38
2019-05-01T13:01:49.404Z,85.46
2019-05-01T13:04:15.208Z,85.96
2019-05-01T13:06:49.150Z,85.96
2019-05-01T13:09:08.802Z,85.15
2019-05-01T13:11:34.578Z,84.91
2019-05-01T13:14:00.385Z,84.56
2019-05-01T13:16:26.265Z,83.95
2019-05-01T13:18:52.070Z,84.63
2019-05-01T13:21:17.855Z,83.87
2019-05-01T13:23:43.750Z,83.76
2019-05-01T13:26:11.441Z,84.05
2019-05-01T13:28:39.157Z,84.25
2019-05-01T13:31:06.846Z,84.49
2019-05-01T13:33:32.759Z,83.91
2019-05-01T13:35:58.571Z,83.91
2019-05-01T13:38:24.348Z,83.71
2019-05-01T13:40:50.157Z,83.54
2019-05-01T13:43:15.940Z,83.36
2019-05-01T13:45:41.755Z,82.91
2019-05-01T13:48:07.528Z,82.74
2019-05-01T13:50:33.524Z,81.81
2019-05-01T13:52:59.327Z,82.07
2019-05-01T13:55:25.221Z,81.93
2019-05-01T13:57:51.016Z,81.76
2019-05-01T14:00:17.818Z,82.31
2019-05-01T14:02:43.620Z,81.55
2019-05-01T14:05:09.545Z,81.49
2019-05-01T14:07:35.340Z,81.48
2019-05-01T14:10:02.754Z,81.83
2019-05-01T14:12:29.302Z,81.11
2019-05-01T14:14:57.851Z,80.62
2019-05-01T14:17:23.836Z,80.66
2019-05-01T14:19:57.430Z,81.15
2019-05-01T14:22:42.904Z,81.00
2019-05-01T14:25:10.302Z,81.13
2019-05-01T14:27:36.502Z,81.05
2019-05-01T14:30:05.093Z,80.03
2019-05-01T14:32:34.090Z,79.36
2019-05-01T14:34:59.863Z,78.98
2019-05-01T14:37:29.695Z,78.62
2019-05-01T14:39:54.510Z,77.87
2019-05-01T14:42:20.400Z,77.34
2019-05-01T14:44:46.196Z,76.20
2019-05-01T14:47:12.395Z,76.20
2019-05-01T14:49:38.295Z,75.66
2019-05-01T14:52:05.016Z,74.94
2019-05-01T14:54:30.785Z,73.60
2019-05-01T14:56:56.702Z,72.70
2019-05-01T14:59:22.554Z,71.70
2019-05-01T15:01:48.351Z,71.38
2019-05-01T15:04:14.842Z,71.06
2019-05-01T15:06:41.378Z,71.32
2019-05-01T15:09:10.492Z,71.61
2019-05-01T15:11:37.144Z,71.57
2019-05-01T15:14:05.632Z,71.36
2019-05-01T15:16:33.314Z,71.72
2019-05-01T15:19:15.642Z,71.73
2019-05-01T15:21:41.480Z,72.74
2019-05-01T15:24:07.261Z,72.74
2019-05-01T15:26:33.116Z,72.51
2019-05-01T15:28:58.953Z,73.59
2019-05-01T15:31:24.766Z,74.14
2019-05-01T15:33:50.782Z,74.27
2019-05-01T15:36:16.872Z,73.94
2019-05-01T15:38:42.742Z,74.45
2019-05-01T15:41:19.336Z,74.65
2019-05-01T15:43:47.133Z,74.67
2019-05-01T15:46:12.933Z,74.83
2019-05-01T15:48:38.733Z,75.81
2019-05-01T15:51:04.518Z,76.33
2019-05-01T15:53:30.316Z,75.77
2019-05-01T15:55:56.142Z,75.86
2019-05-01T15:58:21.936Z,75.91
2019-05-01T16:00:47.740Z,75.71
2019-05-01T16:03:13.528Z,75.92
2019-05-01T16:05:39.334Z,76.16
2019-05-01T16:08:09.862Z,75.89
2019-05-01T16:10:43.651Z,75.58
2019-05-01T16:13:09.449Z,75.17
2019-05-01T16:15:35.284Z,75.35
2019-05-01T16:18:01.185Z,75.35
2019-05-01T16:20:26.973Z,75.58
2019-05-01T16:22:52.882Z,75.24
2019-05-01T16:25:18.679Z,75.93
2019-05-01T16:27:44.470Z,75.87
2019-05-01T16:30:12.070Z,75.79
2019-05-01T16:32:37.869Z,76.24
2019-05-01T16:35:03.785Z,76.49
2019-05-01T16:37:29.583Z,76.49
2019-05-01T16:39:59.800Z,76.21
2019-05-01T16:42:27.619Z,76.42
2019-05-01T16:44:53.436Z,77.21
2019-05-01T16:47:19.218Z,76.88
2019-05-01T16:49:45.015Z,76.78
2019-05-01T16:52:11.405Z,77.45
2019-05-01T16:54:37.218Z,77.82
2019-05-01T16:57:03.007Z,77.82
2019-05-01T16:59:28.797Z,78.08
2019-05-01T17:01:56.532Z,77.64
2019-05-01T17:04:24.229Z,77.91
2019-05-01T17:07:08.370Z,76.94
2019-05-01T17:09:44.918Z,77.50
2019-05-01T17:12:12.735Z,77.71
2019-05-01T17:14:38.713Z,77.71
2019-05-01T17:17:06.520Z,77.35
2019-05-01T17:19:32.347Z,77.85
2019-05-01T17:21:58.298Z,77.85
2019-05-01T17:24:24.118Z,78.19
2019-05-01T17:26:50.197Z,78.19
2019-05-01T17:29:16.073Z,78.27
2019-05-01T17:31:41.941Z,78.71
2019-05-01T17:34:09.701Z,78.30
2019-05-01T17:36:35.585Z,78.58
2019-05-01T17:39:01.410Z,78.95
2019-05-01T17:41:28.630Z,79.09
2019-05-01T17:43:56.746Z,78.71
2019-05-01T17:46:22.343Z,78.71
2019-05-01T17:48:48.186Z,78.75
2019-05-01T17:51:14.123Z,78.86
2019-05-01T17:53:40.094Z,78.84
2019-05-01T17:56:10.226Z,79.10
2019-05-01T17:58:37.018Z,78.92
2019-05-01T18:01:07.538Z,78.92
2019-05-01T18:03:38.652Z,79.66
2019-05-01T18:06:12.167Z,79.47
2019-05-01T18:08:37.992Z,79.47
2019-05-01T18:11:03.918Z,79.52
2019-05-01T18:13:29.730Z,79.65
2019-05-01T18:15:55.531Z,79.46
2019-05-01T18:18:21.323Z,79.49
2019-05-01T18:20:47.243Z,79.47
2019-05-01T18:23:31.413Z,79.04
2019-05-01T18:26:08.697Z,78.15
2019-05-01T18:28:34.803Z,78.09
2019-05-01T18:31:00.722Z,77.75
2019-05-01T18:33:27.210Z,77.98
2019-05-01T18:35:53.178Z,77.82
2019-05-01T18:38:20.880Z,78.02
2019-05-01T18:40:51.550Z,78.23
2019-05-01T18:43:17.365Z,78.57
2019-05-01T18:45:45.979Z,78.57
2019-05-01T18:48:11.950Z,78.58
2019-05-01T18:50:37.729Z,79.07
2019-05-01T18:53:06.725Z,79.19
2019-05-01T18:55:31.507Z,79.50
2019-05-01T19:02:48.946Z,77.48
2019-05-01T19:05:14.766Z,77.29
2019-05-01T19:07:40.565Z,77.41
2019-05-01T19:10:06.393Z,77.53
2019-05-01T19:12:32.269Z,77.91
2019-05-01T19:15:00.409Z,78.06
2019-05-01T19:17:25.825Z,77.77
2019-05-01T19:19:51.863Z,77.72
2019-05-01T19:22:17.676Z,77.83
2019-05-01T19:24:43.489Z,77.83
2019-05-01T19:27:09.400Z,77.90
2019-05-01T19:29:35.193Z,78.13
2019-05-01T19:32:01.071Z,77.91
2019-05-01T19:34:26.872Z,78.08
2019-05-01T19:36:52.652Z,78.00
2019-05-01T19:39:18.552Z,78.09
2019-05-01T19:41:49.238Z,77.89
2019-05-01T19:44:13.948Z,78.03
2019-05-01T19:46:39.769Z,77.84
2019-05-01T19:49:05.550Z,77.84
2019-05-01T19:51:31.546Z,77.83
2019-05-01T19:53:57.496Z,77.63
2019-05-01T19:56:23.299Z,77.44
2019-05-01T19:58:49.093Z,77.77
2019-05-01T20:01:15.082Z,77.86
2019-05-01T20:03:40.881Z,77.91
2019-05-01T20:06:08.176Z,77.78
2019-05-01T20:08:34.161Z,77.76
2019-05-01T20:10:59.966Z,77.75
2019-05-01T20:13:25.747Z,77.61
2019-05-01T20:15:51.548Z,77.61
2019-05-01T20:18:17.329Z,77.70
2019-05-01T20:20:43.227Z,77.75
2019-05-01T20:23:09.201Z,77.70
2019-05-01T20:25:35.006Z,77.67
2019-05-01T20:28:00.787Z,77.85
2019-05-01T20:30:26.586Z,78.02
2019-05-01T20:32:52.387Z,77.86
2019-05-01T20:35:18.191Z,77.69
2019-05-01T20:37:43.992Z,77.86
2019-05-01T20:40:11.557Z,77.97
2019-05-01T20:42:38.066Z,78.18
2019-05-01T20:45:12.615Z,77.98
2019-05-01T20:47:35.372Z,78.24
2019-05-01T20:50:00.568Z,78.38
2019-05-01T20:52:26.413Z,78.38
2019-05-01T20:54:52.198Z,78.45
2019-05-01T20:57:21.366Z,78.55
2019-05-01T20:59:48.352Z,78.64
2019-05-01T21:02:14.261Z,78.64
2019-05-01T21:04:44.719Z,78.81
2019-05-01T21:07:15.545Z,78.81
2019-05-01T21:09:47.881Z,78.68
2019-05-01T21:12:13.069Z,78.67
2019-05-01T21:14:39.109Z,78.67
2019-05-01T21:17:09.637Z,79.05
2019-05-01T21:19:35.229Z,79.05
2019-05-01T21:22:00.621Z,79.21
2019-05-01T21:24:26.466Z,79.08
2019-05-01T21:26:53.416Z,78.61
2019-05-01T21:29:19.395Z,78.09
2019-05-01T21:31:45.214Z,78.09
2019-05-01T21:34:11.009Z,77.58
2019-05-01T21:36:36.796Z,77.68
2019-05-01T21:39:04.192Z,77.70
2019-05-01T21:41:30.039Z,77.54
2019-05-01T21:43:55.841Z,77.49
2019-05-01T21:46:22.744Z,77.56
2019-05-01T21:48:48.760Z,77.63
2019-05-01T21:51:14.539Z,77.50
2019-05-01T21:53:42.769Z,77.44
2019-05-01T21:56:08.282Z,77.30
2019-05-01T21:58:35.973Z,77.30
2019-05-01T22:01:02.076Z,77.05
2019-05-01T22:03:28.241Z,77.05
2019-05-01T22:05:54.028Z,77.13
2019-05-01T22:08:19.926Z,77.04
2019-05-01T22:10:52.173Z,76.75
2019-05-01T22:13:13.447Z,76.74
2019-05-01T22:15:41.994Z,76.67
2019-05-01T22:18:16.421Z,76.50
2019-05-01T22:20:49.873Z,76.50
2019-05-01T22:23:21.905Z,76.39
2019-05-01T22:25:49.734Z,76.26
2019-05-01T22:28:18.724Z,76.28
2019-05-01T22:30:47.552Z,75.91
2019-05-01T22:33:13.351Z,75.91
2019-05-01T22:35:52.929Z,76.28
2019-05-01T22:38:18.826Z,76.48
2019-05-01T22:41:06.151Z,76.32
2019-05-01T22:43:25.845Z,76.18
2019-05-01T22:45:56.291Z,76.23
2019-05-01T22:48:19.737Z,76.48
2019-05-01T22:50:46.245Z,76.44
2019-05-01T22:53:13.043Z,76.40
2019-05-01T22:55:39.746Z,76.22
2019-05-01T22:58:05.533Z,76.68
2019-05-01T23:00:35.787Z,76.65
2019-05-01T23:03:05.455Z,76.79
2019-05-01T23:05:31.287Z,76.69
2019-05-01T23:07:57.231Z,76.82
2019-05-01T23:10:23.071Z,76.86
2019-05-01T23:12:48.861Z,76.62
2019-05-01T23:15:25.497Z,76.89
2019-05-01T23:17:51.389Z,77.24
2019-05-01T23:20:17.593Z,77.24
2019-05-01T23:22:43.494Z,77.31
2019-05-01T23:25:09.387Z,77.31
2019-05-01T23:27:35.168Z,77.54
2019-05-01T23:30:01.777Z,77.52
2019-05-01T23:32:27.568Z,77.79
2019-05-01T23:34:53.372Z,77.79
2019-05-01T23:37:19.154Z,78.58
2019-05-01T23:39:44.941Z,78.63
2019-05-01T23:42:10.755Z,78.59
2019-05-01T23:44:38.212Z,79.17
2019-05-01T23:47:04.246Z,78.94
2019-05-01T23:49:30.030Z,79.72
2019-05-01T23:51:58.510Z,80.12
2019-05-01T23:54:23.524Z,80.47
2019-05-01T23:56:49.417Z,80.67
2019-05-01T23:59:15.223Z,81.01
